Time;durP1;ratioP1;P1;durP2;ratioP2;P2;SDS_P1;SDS_P2;PMS_P1;PMS_P2;Temp;Humidity;BMP_temperature;BMP_pressure;BME280_temperature;BME280_humidity;BME280_pressure;Samples;Min_cycle;Max_cycle;Signal;HPM_P1;HPM_P2
2021/12/03 00:00:23;;;;;;;21.60;18.37;;;;;;;;;;5027972;28;20232;-68
2021/12/03 00:02:49;;;;;;;25.17;20.20;;;;;;;;;;5046066;28;20235;-67
2021/12/03 00:05:15;;;;;;;24.47;19.93;;;;;;;;;;5042020;28;20224;-67
2021/12/03 00:07:42;;;;;;;24.90;19.70;;;;;;;;;;5027112;28;20236;-66
2021/12/03 00:10:09;;;;;;;26.20;19.87;;;;;;;;;;5031723;28;20594;-68
2021/12/03 00:12:35;;;;;;;23.50;20.03;;;;;;;;;;5029659;28;20258;-67
2021/12/03 00:15:01;;;;;;;23.97;20.10;;;;;;;;;;5035702;28;20751;-67
2021/12/03 00:17:26;;;;;;;23.97;19.70;;;;;;;;;;5037746;28;20231;-67
2021/12/03 00:19:52;;;;;;;24.63;20.20;;;;;;;;;;5024742;28;20251;-68
2021/12/03 00:22:18;;;;;;;25.90;20.10;;;;;;;;;;5029925;28;20270;-67
2021/12/03 00:24:44;;;;;;;26.23;20.97;;;;;;;;;;5049961;28;20232;-68
2021/12/03 00:27:10;;;;;;;26.70;20.53;;;;;;;;;;5037429;28;20232;-67
2021/12/03 00:29:36;;;;;;;23.60;19.57;;;;;;;;;;5053868;28;20242;-69
2021/12/03 00:32:02;;;;;;;26.13;21.07;;;;;;;;;;5039774;28;20274;-68
2021/12/03 00:34:28;;;;;;;25.93;20.87;;;;;;;;;;5047606;28;20227;-68
2021/12/03 00:36:55;;;;;;;25.83;21.60;;;;;;;;;;5033192;28;20598;-68
2021/12/03 00:39:21;;;;;;;27.40;22.00;;;;;;;;;;5045050;28;20238;-68
2021/12/03 00:41:51;;;;;;;25.47;21.27;;;;;;;;;;5047650;28;20231;-68
2021/12/03 00:44:19;;;;;;;28.67;22.23;;;;;;;;;;5045367;28;20650;-68
2021/12/03 00:46:45;;;;;;;26.87;21.67;;;;;;;;;;5055110;28;20254;-68
2021/12/03 00:49:11;;;;;;;31.40;21.53;;;;;;;;;;5043586;28;20236;-68
2021/12/03 00:51:37;;;;;;;26.87;22.57;;;;;;;;;;5048829;28;20231;-68
2021/12/03 00:54:03;;;;;;;26.43;23.07;;;;;;;;;;5048917;28;20233;-68
2021/12/03 00:56:29;;;;;;;26.80;22.10;;;;;;;;;;5049852;28;20306;-68
2021/12/03 00:58:55;;;;;;;27.60;21.90;;;;;;;;;;5028186;28;20228;-68
2021/12/03 01:01:21;;;;;;;29.60;22.80;;;;;;;;;;5052090;28;20664;-68
2021/12/03 01:03:47;;;;;;;28.63;22.33;;;;;;;;;;5049806;28;20696;-67
2021/12/03 01:06:13;;;;;;;28.80;21.87;;;;;;;;;;5032004;28;20762;-67
2021/12/03 01:08:39;;;;;;;31.10;23.00;;;;;;;;;;5049058;28;20222;-67
2021/12/03 01:11:05;;;;;;;26.30;22.00;;;;;;;;;;5052755;28;20239;-67
2021/12/03 01:13:31;;;;;;;31.63;22.00;;;;;;;;;;5050649;28;20240;-67
2021/12/03 01:15:57;;;;;;;30.07;22.37;;;;;;;;;;5051776;28;20230;-67
2021/12/03 01:18:23;;;;;;;28.47;22.07;;;;;;;;;;5044080;28;20212;-67
2021/12/03 01:20:49;;;;;;;26.37;21.77;;;;;;;;;;5033861;28;20280;-67
2021/12/03 01:23:15;;;;;;;27.80;21.10;;;;;;;;;;5045060;28;20227;-67
2021/12/03 01:25:41;;;;;;;25.70;19.97;;;;;;;;;;5048813;28;20341;-67
2021/12/03 01:28:07;;;;;;;25.93;19.60;;;;;;;;;;5047902;28;20226;-67
2021/12/03 01:30:33;;;;;;;30.57;21.83;;;;;;;;;;5041132;28;20555;-69
2021/12/03 01:32:59;;;;;;;25.63;20.73;;;;;;;;;;5048150;28;20235;-69
2021/12/03 01:35:25;;;;;;;26.93;20.17;;;;;;;;;;5022939;28;20240;-68
2021/12/03 01:37:51;;;;;;;24.30;19.90;;;;;;;;;;5046560;28;20580;-67
2021/12/03 01:40:18;;;;;;;27.67;20.57;;;;;;;;;;5046202;28;20262;-67
2021/12/03 01:42:45;;;;;;;25.57;19.87;;;;;;;;;;5047992;28;20232;-68
2021/12/03 01:45:12;;;;;;;26.03;20.77;;;;;;;;;;5024737;28;20653;-67
2021/12/03 01:47:40;;;;;;;26.10;20.03;;;;;;;;;;5042842;28;20234;-68
2021/12/03 01:50:06;;;;;;;24.87;20.37;;;;;;;;;;5052926;28;20265;-68
2021/12/03 01:52:32;;;;;;;28.23;20.40;;;;;;;;;;5043525;28;20235;-68
2021/12/03 01:54:59;;;;;;;25.90;19.60;;;;;;;;;;5046734;28;20227;-68
2021/12/03 01:57:26;;;;;;;27.23;19.47;;;;;;;;;;5032548;28;20964;-68
2021/12/03 01:59:52;;;;;;;26.40;19.40;;;;;;;;;;5014491;28;20262;-68
2021/12/03 02:02:18;;;;;;;26.17;19.80;;;;;;;;;;5046834;28;20325;-67
2021/12/03 02:04:44;;;;;;;29.23;19.97;;;;;;;;;;5051577;28;20233;-67
2021/12/03 02:07:10;;;;;;;27.07;19.03;;;;;;;;;;5030442;28;20231;-66
2021/12/03 02:09:36;;;;;;;30.97;19.37;;;;;;;;;;5052211;28;20250;-68
2021/12/03 02:12:02;;;;;;;28.63;20.03;;;;;;;;;;5029655;28;20403;-69
2021/12/03 02:14:28;;;;;;;26.47;20.23;;;;;;;;;;5043089;28;20757;-68
2021/12/03 02:16:53;;;;;;;27.40;19.67;;;;;;;;;;5055723;28;20654;-69
2021/12/03 02:19:19;;;;;;;31.93;19.00;;;;;;;;;;5045915;28;20267;-68
2021/12/03 02:21:45;;;;;;;25.40;18.23;;;;;;;;;;5031485;28;20250;-67
2021/12/03 02:24:12;;;;;;;24.23;18.33;;;;;;;;;;5038161;28;20259;-67
2021/12/03 02:26:39;;;;;;;27.87;18.73;;;;;;;;;;5044412;28;20313;-67
2021/12/03 02:29:05;;;;;;;25.83;19.23;;;;;;;;;;5047265;28;20917;-67
2021/12/03 02:31:31;;;;;;;24.47;17.57;;;;;;;;;;5048819;28;20263;-67
2021/12/03 02:33:57;;;;;;;24.57;16.87;;;;;;;;;;5046412;28;20222;-67
2021/12/03 02:36:23;;;;;;;25.80;17.40;;;;;;;;;;5044855;28;20231;-68
2021/12/03 02:38:49;;;;;;;28.83;17.23;;;;;;;;;;5048125;28;20331;-67
2021/12/03 02:41:15;;;;;;;23.80;17.23;;;;;;;;;;5047325;28;20245;-68
2021/12/03 02:43:41;;;;;;;25.70;17.07;;;;;;;;;;5051025;28;20227;-67
2021/12/03 02:46:07;;;;;;;22.23;17.07;;;;;;;;;;5048476;28;20265;-67
2021/12/03 02:48:35;;;;;;;24.37;16.30;;;;;;;;;;5032816;28;20603;-67
2021/12/03 02:51:01;;;;;;;21.80;16.20;;;;;;;;;;5043075;28;20536;-67
2021/12/03 02:53:27;;;;;;;24.50;16.43;;;;;;;;;;5030800;28;20271;-68
2021/12/03 02:55:53;;;;;;;24.53;16.27;;;;;;;;;;5043890;28;20736;-68
2021/12/03 02:58:19;;;;;;;25.57;16.03;;;;;;;;;;5037426;28;20802;-68
2021/12/03 03:00:45;;;;;;;24.43;16.17;;;;;;;;;;5041113;28;20231;-68
2021/12/03 03:03:11;;;;;;;22.13;15.93;;;;;;;;;;5040718;28;20313;-68
2021/12/03 03:05:37;;;;;;;22.20;16.33;;;;;;;;;;5047233;28;20245;-68
2021/12/03 03:08:03;;;;;;;20.93;16.23;;;;;;;;;;5047877;28;20235;-67
2021/12/03 03:10:31;;;;;;;26.17;16.33;;;;;;;;;;5051352;28;20253;-67
2021/12/03 03:12:58;;;;;;;26.77;17.07;;;;;;;;;;5043366;28;20763;-68
2021/12/03 03:15:24;;;;;;;23.10;16.37;;;;;;;;;;5028672;28;20227;-68
2021/12/03 03:17:50;;;;;;;24.33;17.57;;;;;;;;;;5041283;28;20289;-67
2021/12/03 03:20:16;;;;;;;24.53;16.73;;;;;;;;;;5045185;28;20227;-67
2021/12/03 03:22:42;;;;;;;23.97;16.20;;;;;;;;;;5045505;28;20301;-67
2021/12/03 03:25:10;;;;;;;24.90;16.37;;;;;;;;;;5047690;28;20611;-68
2021/12/03 03:27:36;;;;;;;26.77;17.03;;;;;;;;;;5045748;28;20607;-67
2021/12/03 03:30:02;;;;;;;23.57;16.40;;;;;;;;;;5048790;28;20999;-68
2021/12/03 03:32:28;;;;;;;19.53;15.27;;;;;;;;;;5048783;28;21243;-67
2021/12/03 03:34:54;;;;;;;23.27;15.17;;;;;;;;;;5050681;28;20232;-66
2021/12/03 03:37:20;;;;;;;22.27;15.87;;;;;;;;;;5047679;28;20227;-68
2021/12/03 03:39:46;;;;;;;24.73;16.43;;;;;;;;;;5047783;28;20523;-67
2021/12/03 03:42:12;;;;;;;29.37;16.73;;;;;;;;;;5054400;28;20719;-68
2021/12/03 03:44:38;;;;;;;23.30;16.57;;;;;;;;;;5051455;28;20709;-67
2021/12/03 03:47:05;;;;;;;22.60;15.43;;;;;;;;;;5052539;28;20228;-67
2021/12/03 03:49:31;;;;;;;21.50;15.70;;;;;;;;;;5030574;28;20337;-68
2021/12/03 03:51:57;;;;;;;23.50;16.77;;;;;;;;;;5037505;28;20235;-68
2021/12/03 03:54:23;;;;;;;23.77;15.90;;;;;;;;;;5052115;28;20308;-68
2021/12/03 03:56:49;;;;;;;23.30;15.37;;;;;;;;;;5054384;28;20238;-67
2021/12/03 03:59:17;;;;;;;22.33;16.10;;;;;;;;;;5048339;28;20235;-67
2021/12/03 04:01:44;;;;;;;23.07;15.40;;;;;;;;;;5044602;28;20486;-68
2021/12/03 04:04:10;;;;;;;26.60;16.43;;;;;;;;;;5048624;28;20323;-67
2021/12/03 04:06:36;;;;;;;25.77;15.67;;;;;;;;;;5045836;28;20511;-68
2021/12/03 04:09:02;;;;;;;23.10;15.13;;;;;;;;;;5051285;28;20273;-67
2021/12/03 04:11:28;;;;;;;23.07;15.23;;;;;;;;;;5035297;28;20244;-67
2021/12/03 04:13:54;;;;;;;23.73;15.70;;;;;;;;;;5029446;28;20274;-67
2021/12/03 04:16:20;;;;;;;22.53;15.27;;;;;;;;;;5046111;28;20224;-67
2021/12/03 04:18:47;;;;;;;23.67;14.90;;;;;;;;;;5031856;28;20600;-68
2021/12/03 04:21:13;;;;;;;24.20;15.00;;;;;;;;;;5048335;28;20456;-67
2021/12/03 04:23:39;;;;;;;27.13;15.77;;;;;;;;;;5050280;28;20238;-67
2021/12/03 04:26:05;;;;;;;24.27;13.77;;;;;;;;;;5051397;28;20238;-67
2021/12/03 04:28:31;;;;;;;24.33;15.47;;;;;;;;;;5047686;28;20902;-66
2021/12/03 04:30:56;;;;;;;19.83;14.13;;;;;;;;;;5053320;28;20586;-65
2021/12/03 04:33:23;;;;;;;26.33;15.70;;;;;;;;;;5033605;28;20808;-66
2021/12/03 04:35:48;;;;;;;21.93;15.63;;;;;;;;;;5032395;28;20481;-66
2021/12/03 04:38:14;;;;;;;23.07;15.50;;;;;;;;;;5046949;28;22389;-67
2021/12/03 04:40:41;;;;;;;26.20;16.60;;;;;;;;;;5049458;28;20299;-67
2021/12/03 04:43:07;;;;;;;24.63;15.97;;;;;;;;;;5049554;28;20234;-67
2021/12/03 04:45:33;;;;;;;30.00;16.73;;;;;;;;;;5046626;28;20219;-67
2021/12/03 04:47:59;;;;;;;28.40;16.70;;;;;;;;;;5044381;28;20711;-65
2021/12/03 04:50:26;;;;;;;27.30;17.27;;;;;;;;;;5045831;28;20236;-65
2021/12/03 04:52:52;;;;;;;25.97;15.90;;;;;;;;;;5049845;28;20239;-66
2021/12/03 04:55:18;;;;;;;25.17;16.50;;;;;;;;;;5047349;28;20894;-67
2021/12/03 04:57:44;;;;;;;25.77;16.83;;;;;;;;;;5029888;28;22348;-65
2021/12/03 05:00:14;;;;;;;29.17;17.20;;;;;;;;;;5050955;28;20326;-66
2021/12/03 05:02:40;;;;;;;29.70;17.90;;;;;;;;;;5048123;28;20524;-66
2021/12/03 05:05:06;;;;;;;25.97;16.77;;;;;;;;;;5050735;28;20258;-66
2021/12/03 05:10:08;;;;;;;31.50;17.83;;;;;;;;;;5054177;28;20257;-66
2021/12/03 05:12:34;;;;;;;25.80;17.97;;;;;;;;;;5048279;28;20266;-67
2021/12/03 05:15:00;;;;;;;27.90;17.63;;;;;;;;;;5042168;28;20308;-67
2021/12/03 05:17:26;;;;;;;29.77;17.40;;;;;;;;;;5026098;28;20923;-66
2021/12/03 05:19:52;;;;;;;23.30;16.53;;;;;;;;;;5045908;28;20235;-66
2021/12/03 05:22:18;;;;;;;25.37;17.33;;;;;;;;;;5051434;28;20291;-66
2021/12/03 05:24:47;;;;;;;26.80;17.67;;;;;;;;;;5044452;28;20650;-67
2021/12/03 05:27:17;;;;;;;26.63;16.53;;;;;;;;;;5042115;28;21106;-67
2021/12/03 05:29:43;;;;;;;27.13;17.13;;;;;;;;;;5044830;28;20235;-66
2021/12/03 05:32:09;;;;;;;27.83;17.80;;;;;;;;;;5015432;28;20231;-66
2021/12/03 05:34:35;;;;;;;24.97;16.77;;;;;;;;;;5040819;28;20330;-65
2021/12/03 05:37:01;;;;;;;28.50;17.73;;;;;;;;;;5034910;28;21135;-65
2021/12/03 05:39:27;;;;;;;21.80;16.20;;;;;;;;;;5031928;28;20700;-66
2021/12/03 05:41:53;;;;;;;26.10;16.77;;;;;;;;;;5038742;28;20243;-66
2021/12/03 05:44:19;;;;;;;28.23;17.67;;;;;;;;;;5040439;28;20236;-67
2021/12/03 05:46:45;;;;;;;27.47;16.47;;;;;;;;;;5039324;28;20231;-66
2021/12/03 05:49:11;;;;;;;25.10;16.93;;;;;;;;;;5033735;28;20323;-66
2021/12/03 05:51:37;;;;;;;25.87;16.60;;;;;;;;;;5037282;28;20239;-66
2021/12/03 05:54:03;;;;;;;25.13;16.47;;;;;;;;;;5040854;28;20314;-66
2021/12/03 05:56:30;;;;;;;24.63;16.60;;;;;;;;;;5050794;28;20235;-66
2021/12/03 05:58:55;;;;;;;25.40;16.80;;;;;;;;;;5038225;28;20786;-67
2021/12/03 06:01:21;;;;;;;24.83;17.40;;;;;;;;;;5021151;28;20228;-66
2021/12/03 06:03:47;;;;;;;24.80;17.13;;;;;;;;;;5041845;28;20237;-67
2021/12/03 06:06:14;;;;;;;26.57;17.50;;;;;;;;;;5045361;28;20815;-66
2021/12/03 06:08:40;;;;;;;25.77;16.80;;;;;;;;;;5048077;28;20235;-66
2021/12/03 06:11:06;;;;;;;25.77;16.53;;;;;;;;;;5021250;28;20290;-66
2021/12/03 06:13:32;;;;;;;26.83;17.13;;;;;;;;;;5044569;28;20227;-66
2021/12/03 06:15:58;;;;;;;43.03;22.57;;;;;;;;;;5020161;28;20251;-66
2021/12/03 06:18:24;;;;;;;42.93;21.53;;;;;;;;;;5038796;28;20340;-67
2021/12/03 06:20:50;;;;;;;35.90;21.40;;;;;;;;;;5039106;28;20231;-67
2021/12/03 06:23:17;;;;;;;32.77;19.37;;;;;;;;;;5045578;28;20287;-67
2021/12/03 06:25:43;;;;;;;31.97;19.00;;;;;;;;;;5042433;28;20230;-67
2021/12/03 06:28:09;;;;;;;34.50;19.77;;;;;;;;;;5045814;28;20234;-65
2021/12/03 06:30:35;;;;;;;30.63;19.23;;;;;;;;;;5040856;28;20250;-66
2021/12/03 06:33:02;;;;;;;35.97;17.83;;;;;;;;;;5046234;28;20236;-65
2021/12/03 06:35:28;;;;;;;30.47;17.70;;;;;;;;;;5048490;28;20783;-66
2021/12/03 06:37:54;;;;;;;26.43;17.80;;;;;;;;;;5051768;28;20585;-66
2021/12/03 06:40:22;;;;;;;25.57;16.30;;;;;;;;;;5041702;28;20244;-67
2021/12/03 06:42:48;;;;;;;25.97;16.53;;;;;;;;;;5044583;28;20588;-67
2021/12/03 06:45:14;;;;;;;28.77;16.43;;;;;;;;;;5040193;28;20285;-66
2021/12/03 06:47:40;;;;;;;31.67;15.60;;;;;;;;;;5036613;28;20230;-67
2021/12/03 06:50:08;;;;;;;24.10;14.90;;;;;;;;;;5036101;28;20794;-67
2021/12/03 06:52:37;;;;;;;20.80;14.23;;;;;;;;;;5038745;28;20239;-67
2021/12/03 06:55:04;;;;;;;25.60;14.20;;;;;;;;;;5045027;28;20323;-66
2021/12/03 06:57:30;;;;;;;23.20;12.90;;;;;;;;;;5049474;28;20229;-67
2021/12/03 06:59:56;;;;;;;18.80;12.50;;;;;;;;;;5049196;28;20232;-67
2021/12/03 07:02:22;;;;;;;21.17;12.50;;;;;;;;;;5049897;28;20251;-67
2021/12/03 07:04:48;;;;;;;24.67;12.40;;;;;;;;;;5045262;28;20707;-67
2021/12/03 07:07:14;;;;;;;23.43;12.60;;;;;;;;;;5059977;28;20262;-67
2021/12/03 07:09:41;;;;;;;19.47;11.80;;;;;;;;;;5033571;28;20707;-66
2021/12/03 07:12:08;;;;;;;23.03;11.40;;;;;;;;;;5049236;28;20659;-67
2021/12/03 07:14:34;;;;;;;19.33;11.43;;;;;;;;;;5048690;28;20264;-67
2021/12/03 07:17:05;;;;;;;20.97;11.53;;;;;;;;;;5050466;28;20235;-67
2021/12/03 07:19:31;;;;;;;18.13;10.57;;;;;;;;;;5046213;28;20298;-67
2021/12/03 07:21:57;;;;;;;18.40;10.73;;;;;;;;;;5051084;28;20254;-67
2021/12/03 07:24:23;;;;;;;22.13;10.83;;;;;;;;;;5046540;28;20311;-67
2021/12/03 07:26:48;;;;;;;19.93;10.70;;;;;;;;;;5055659;28;20230;-67
2021/12/03 07:29:14;;;;;;;19.30;9.97;;;;;;;;;;5053392;28;20242;-67
2021/12/03 07:31:40;;;;;;;20.50;10.23;;;;;;;;;;5048243;28;20243;-67
2021/12/03 07:34:06;;;;;;;17.17;9.80;;;;;;;;;;5046968;28;20243;-67
2021/12/03 07:36:32;;;;;;;20.20;10.53;;;;;;;;;;5048860;28;20239;-67
2021/12/03 07:38:58;;;;;;;19.10;10.17;;;;;;;;;;5050355;28;20249;-66
2021/12/03 07:41:24;;;;;;;20.43;9.80;;;;;;;;;;5048187;28;20707;-67
2021/12/03 07:43:50;;;;;;;18.53;9.53;;;;;;;;;;5049766;28;20385;-67
2021/12/03 07:46:16;;;;;;;17.47;9.73;;;;;;;;;;5051528;28;20234;-67
2021/12/03 07:48:46;;;;;;;15.73;9.83;;;;;;;;;;5036355;28;20288;-67
2021/12/03 07:51:13;;;;;;;22.37;10.00;;;;;;;;;;5048575;28;20270;-66
2021/12/03 07:53:39;;;;;;;18.33;8.80;;;;;;;;;;5021797;28;20235;-67
2021/12/03 07:56:05;;;;;;;17.47;9.03;;;;;;;;;;5039883;28;20238;-65
2021/12/03 07:58:31;;;;;;;14.80;8.37;;;;;;;;;;5043886;28;20280;-65
2021/12/03 08:00:58;;;;;;;14.93;7.83;;;;;;;;;;5039175;28;20255;-65
2021/12/03 08:03:24;;;;;;;15.13;7.43;;;;;;;;;;5051032;28;20239;-65
2021/12/03 08:05:49;;;;;;;14.57;6.50;;;;;;;;;;5041867;28;20966;-64
2021/12/03 08:08:22;;;;;;;15.43;6.77;;;;;;;;;;5048003;28;20223;-67
2021/12/03 08:10:49;;;;;;;12.63;6.83;;;;;;;;;;5050728;28;20274;-67
2021/12/03 08:13:15;;;;;;;18.80;6.87;;;;;;;;;;5049536;28;20224;-67
2021/12/03 08:15:41;;;;;;;13.87;6.57;;;;;;;;;;5050543;28;20307;-67
2021/12/03 08:18:07;;;;;;;13.80;6.63;;;;;;;;;;5048051;28;20235;-67
2021/12/03 08:20:33;;;;;;;14.97;6.37;;;;;;;;;;5041122;28;20347;-67
2021/12/03 08:22:59;;;;;;;14.30;6.30;;;;;;;;;;5043881;28;20738;-67
2021/12/03 08:25:26;;;;;;;16.53;6.20;;;;;;;;;;5048839;28;20223;-68
2021/12/03 08:27:52;;;;;;;16.73;6.17;;;;;;;;;;5051336;28;20262;-68
2021/12/03 08:30:18;;;;;;;15.10;5.87;;;;;;;;;;5048063;28;20317;-68
2021/12/03 08:32:44;;;;;;;15.07;5.90;;;;;;;;;;5046041;28;20344;-68
2021/12/03 08:35:10;;;;;;;11.70;5.87;;;;;;;;;;5051380;28;20228;-68
2021/12/03 08:37:37;;;;;;;13.37;5.90;;;;;;;;;;5048513;28;20990;-67
2021/12/03 08:40:03;;;;;;;13.50;6.23;;;;;;;;;;5043786;28;20804;-67
2021/12/03 08:42:29;;;;;;;12.40;6.03;;;;;;;;;;5047422;28;20638;-67
2021/12/03 08:44:57;;;;;;;13.50;6.37;;;;;;;;;;5040996;28;20239;-67
2021/12/03 08:47:23;;;;;;;14.67;6.20;;;;;;;;;;5042144;28;20259;-67
2021/12/03 08:49:51;;;;;;;16.63;6.10;;;;;;;;;;5044001;28;20227;-67
2021/12/03 08:57:15;;;;;;;13.67;5.60;;;;;;;;;;5049841;28;20231;-70
2021/12/03 08:59:41;;;;;;;15.13;5.73;;;;;;;;;;5028035;28;20231;-67
2021/12/03 09:02:07;;;;;;;11.53;5.73;;;;;;;;;;5048949;28;20280;-67
2021/12/03 09:04:33;;;;;;;13.67;5.50;;;;;;;;;;5043640;28;20239;-67
2021/12/03 09:07:00;;;;;;;15.13;5.50;;;;;;;;;;5044071;28;20227;-67
2021/12/03 09:09:26;;;;;;;12.40;5.47;;;;;;;;;;5049491;28;20231;-67
2021/12/03 09:11:52;;;;;;;12.10;5.03;;;;;;;;;;5055472;28;20317;-67
2021/12/03 09:14:42;;;;;;;13.07;5.13;;;;;;;;;;5052196;28;20594;-67
2021/12/03 09:17:19;;;;;;;12.73;5.47;;;;;;;;;;5033766;28;20607;-66
2021/12/03 09:19:56;;;;;;;13.80;5.83;;;;;;;;;;5047039;28;20247;-68
2021/12/03 09:23:08;;;;;;;13.40;4.57;;;;;;;;;;5049858;28;20242;-66
2021/12/03 09:25:15;;;;;;;12.17;4.50;;;;;;;;;;5041135;28;20226;-67
2021/12/03 09:27:41;;;;;;;13.00;4.50;;;;;;;;;;5047148;28;20253;-67
2021/12/03 09:30:07;;;;;;;11.93;4.43;;;;;;;;;;5041630;28;20646;-67
2021/12/03 09:32:34;;;;;;;10.60;4.40;;;;;;;;;;5045046;28;20744;-67
2021/12/03 09:35:00;;;;;;;12.53;4.70;;;;;;;;;;5044395;28;20652;-67
2021/12/03 09:37:26;;;;;;;13.70;4.30;;;;;;;;;;5043428;28;20736;-67
2021/12/03 09:39:52;;;;;;;14.03;4.60;;;;;;;;;;5053846;28;20238;-67
2021/12/03 09:42:19;;;;;;;9.73;4.63;;;;;;;;;;5049474;28;20235;-67
2021/12/03 09:44:45;;;;;;;10.33;4.00;;;;;;;;;;5046602;28;20258;-68
2021/12/03 09:47:12;;;;;;;14.23;4.30;;;;;;;;;;5046605;28;20802;-68
2021/12/03 09:49:39;;;;;;;13.93;4.57;;;;;;;;;;5031557;28;21193;-68
2021/12/03 09:52:12;;;;;;;14.63;4.80;;;;;;;;;;5048566;28;20239;-67
2021/12/03 09:54:46;;;;;;;14.53;4.40;;;;;;;;;;5044096;28;20395;-67
2021/12/03 09:57:26;;;;;;;9.50;4.73;;;;;;;;;;5048638;28;20229;-68
2021/12/03 10:02:26;;;;;;;11.43;4.63;;;;;;;;;;5041197;28;20224;-68
2021/12/03 10:11:46;;;;;;;13.10;4.20;;;;;;;;;;5045132;28;20368;-65
2021/12/03 10:13:24;;;;;;;12.23;4.53;;;;;;;;;;5035819;28;20235;-66
2021/12/03 10:18:31;;;;;;;10.37;3.80;;;;;;;;;;5047693;28;20241;-67
2021/12/03 10:21:29;;;;;;;15.70;5.17;;;;;;;;;;5043790;28;20239;-66
2021/12/03 10:29:30;;;;;;;15.33;3.67;;;;;;;;;;5050335;28;20223;-66
2021/12/03 10:32:23;;;;;;;11.77;3.93;;;;;;;;;;5044925;28;20227;-68
2021/12/03 10:35:04;;;;;;;10.50;3.93;;;;;;;;;;5044511;28;22219;-67
2021/12/03 10:43:35;;;;;;;8.77;4.37;;;;;;;;;;5051592;28;20237;-67
2021/12/03 10:46:18;;;;;;;10.30;3.67;;;;;;;;;;5045959;28;20331;-67
2021/12/03 10:51:58;;;;;;;8.63;3.20;;;;;;;;;;4987196;28;20295;-66
2021/12/03 10:54:46;;;;;;;8.50;3.63;;;;;;;;;;4989051;28;20229;-67
2021/12/03 11:08:33;;;;;;;10.17;3.40;;;;;;;;;;5031730;28;20237;-67
2021/12/03 11:29:57;;;;;;;8.57;3.00;;;;;;;;;;5038974;28;20598;-67
2021/12/03 12:01:27;;;;;;;8.53;3.40;;;;;;;;;;5051856;28;20377;-66
2021/12/03 12:26:36;;;;;;;6.67;3.43;;;;;;;;;;5043857;28;20288;-69
2021/12/03 12:44:09;;;;;;;7.90;4.80;;;;;;;;;;5047125;28;20272;-67
2021/12/03 14:39:50;;;;;;;8.03;3.37;;;;;;;;;;5039781;28;20308;-66
2021/12/03 14:42:33;;;;;;;3.90;3.10;;;;;;;;;;5047996;28;20241;-65
2021/12/03 14:45:09;;;;;;;3.87;3.23;;;;;;;;;;5035293;28;20265;-64
2021/12/03 14:48:28;;;;;;;4.73;2.93;;;;;;;;;;5044417;28;20227;-65
2021/12/03 14:55:34;;;;;;;4.60;3.20;;;;;;;;;;5040390;28;20786;-65
2021/12/03 14:58:00;;;;;;;4.93;3.37;;;;;;;;;;5031948;28;22508;-65
2021/12/03 15:00:32;;;;;;;5.00;3.20;;;;;;;;;;5034465;28;20231;-65
2021/12/03 15:03:07;;;;;;;5.90;3.60;;;;;;;;;;5027973;28;20235;-66
2021/12/03 15:08:08;;;;;;;4.97;3.70;;;;;;;;;;5038957;28;20362;-65
2021/12/03 15:10:47;;;;;;;5.00;4.17;;;;;;;;;;5042295;28;20228;-65
2021/12/03 15:18:41;;;;;;;3.63;3.23;;;;;;;;;;5043676;28;20273;-64
2021/12/03 15:31:54;;;;;;;5.07;3.37;;;;;;;;;;5048295;28;20332;-65
2021/12/03 16:03:48;;;;;;;5.47;3.20;;;;;;;;;;5034781;28;20232;-65
2021/12/03 16:06:26;;;;;;;5.67;2.97;;;;;;;;;;5040623;28;20246;-64
2021/12/03 16:08:55;;;;;;;4.00;3.10;;;;;;;;;;5038028;28;20233;-63
2021/12/03 16:11:40;;;;;;;4.67;2.90;;;;;;;;;;5038948;28;20227;-66
2021/12/03 16:22:27;;;;;;;7.20;2.60;;;;;;;;;;5052019;28;21066;-66
2021/12/03 16:54:06;;;;;;;4.10;3.60;;;;;;;;;;5040341;28;20597;-66
2021/12/03 16:56:32;;;;;;;4.87;3.37;;;;;;;;;;5039298;28;20301;-66
2021/12/03 16:58:59;;;;;;;3.70;3.20;;;;;;;;;;5045956;28;20406;-66
2021/12/03 17:15:14;;;;;;;5.33;3.60;;;;;;;;;;5038152;28;20239;-67
2021/12/03 17:56:14;;;;;;;4.17;3.23;;;;;;;;;;5042413;28;20715;-66
2021/12/03 17:58:27;;;;;;;3.47;3.00;;;;;;;;;;5017593;28;20674;-66
2021/12/03 18:01:04;;;;;;;4.23;3.27;;;;;;;;;;5037331;28;20988;-66
2021/12/03 18:03:40;;;;;;;4.73;3.03;;;;;;;;;;5032058;28;20322;-67
2021/12/03 18:08:47;;;;;;;3.67;2.90;;;;;;;;;;5042237;28;20231;-68
2021/12/03 18:14:21;;;;;;;3.00;2.80;;;;;;;;;;5050607;28;20241;-67
2021/12/03 18:47:02;;;;;;;2.87;2.57;;;;;;;;;;5032546;28;20266;-68
2021/12/03 18:54:44;;;;;;;3.57;2.43;;;;;;;;;;5029209;28;20230;-68
2021/12/03 18:57:13;;;;;;;2.83;2.33;;;;;;;;;;5031435;28;20239;-67
2021/12/03 18:59:53;;;;;;;3.23;2.13;;;;;;;;;;5031981;28;20231;-68
2021/12/03 19:02:21;;;;;;;2.67;2.00;;;;;;;;;;5037449;28;20263;-67
2021/12/03 19:04:55;;;;;;;3.40;2.30;;;;;;;;;;5033937;28;22893;-68
2021/12/03 19:07:27;;;;;;;3.40;2.20;;;;;;;;;;5053417;28;20225;-68
2021/12/03 19:09:56;;;;;;;2.63;2.13;;;;;;;;;;5049654;28;20231;-68
2021/12/03 19:12:24;;;;;;;2.30;2.10;;;;;;;;;;5047213;28;20337;-68
2021/12/03 19:14:56;;;;;;;2.63;2.20;;;;;;;;;;5044872;28;20219;-69
2021/12/03 19:17:23;;;;;;;2.30;2.10;;;;;;;;;;5041396;28;20634;-67
2021/12/03 19:19:52;;;;;;;2.50;2.30;;;;;;;;;;5041891;28;20254;-67
2021/12/03 19:22:19;;;;;;;3.43;2.40;;;;;;;;;;5043461;28;20231;-67
2021/12/03 19:24:45;;;;;;;9.50;2.70;;;;;;;;;;5041364;28;20360;-67
2021/12/03 19:27:11;;;;;;;3.40;2.40;;;;;;;;;;5034129;28;21145;-67
2021/12/03 19:29:38;;;;;;;2.73;2.13;;;;;;;;;;5022714;28;20699;-67
2021/12/03 19:32:04;;;;;;;2.60;2.20;;;;;;;;;;5045357;28;20694;-68
2021/12/03 19:34:30;;;;;;;3.80;2.93;;;;;;;;;;5041105;28;20258;-68
2021/12/03 19:36:57;;;;;;;3.63;2.40;;;;;;;;;;5044754;28;20240;-68
2021/12/03 19:39:24;;;;;;;4.17;2.30;;;;;;;;;;5047385;28;20223;-68
2021/12/03 19:42:05;;;;;;;2.80;2.33;;;;;;;;;;5028528;28;20286;-67
2021/12/03 19:44:42;;;;;;;2.50;2.30;;;;;;;;;;5050159;28;20237;-69
2021/12/03 19:47:09;;;;;;;2.80;2.30;;;;;;;;;;5036436;28;20227;-67
2021/12/03 19:49:45;;;;;;;3.10;2.00;;;;;;;;;;5051539;28;20222;-67
2021/12/03 19:52:21;;;;;;;2.00;1.90;;;;;;;;;;5051070;28;20297;-67
2021/12/03 19:54:47;;;;;;;2.40;2.20;;;;;;;;;;5036217;28;20282;-67
2021/12/03 19:57:13;;;;;;;2.17;1.97;;;;;;;;;;5047129;28;21006;-68
2021/12/03 19:59:39;;;;;;;2.00;1.90;;;;;;;;;;5029906;28;20235;-68
2021/12/03 20:02:05;;;;;;;1.60;1.50;;;;;;;;;;5044358;28;20223;-69
2021/12/03 20:04:31;;;;;;;2.40;1.87;;;;;;;;;;5042118;28;20245;-68
2021/12/03 20:06:59;;;;;;;2.10;1.90;;;;;;;;;;5044026;28;20235;-68
2021/12/03 20:09:30;;;;;;;2.00;1.77;;;;;;;;;;5048091;28;20235;-68
2021/12/03 20:12:04;;;;;;;2.37;1.70;;;;;;;;;;5028436;28;20243;-68
2021/12/03 20:14:31;;;;;;;2.33;1.80;;;;;;;;;;5036942;28;20652;-68
2021/12/03 20:17:19;;;;;;;1.67;1.40;;;;;;;;;;5043746;28;20695;-68
2021/12/03 20:20:08;;;;;;;1.80;1.70;;;;;;;;;;5043255;28;20322;-67
2021/12/03 20:27:50;;;;;;;2.20;1.70;;;;;;;;;;5045577;28;20472;-67
2021/12/03 20:30:23;;;;;;;1.57;1.47;;;;;;;;;;5051977;28;20318;-67
2021/12/03 20:33:04;;;;;;;1.60;1.50;;;;;;;;;;5040384;28;20244;-67
2021/12/03 20:36:01;;;;;;;2.00;1.70;;;;;;;;;;5048036;28;20368;-67
2021/12/03 20:38:28;;;;;;;1.60;1.50;;;;;;;;;;5046852;28;20278;-68
2021/12/03 20:40:56;;;;;;;1.50;1.40;;;;;;;;;;5048198;28;20704;-69
2021/12/03 20:46:24;;;;;;;1.87;1.67;;;;;;;;;;5023622;28;20604;-68
2021/12/03 20:52:10;;;;;;;1.70;1.60;;;;;;;;;;5032512;28;21082;-68
2021/12/03 20:57:21;;;;;;;2.57;1.57;;;;;;;;;;5016520;28;20614;-67
2021/12/03 21:10:44;;;;;;;1.40;1.30;;;;;;;;;;5034352;28;20238;-67
2021/12/03 21:13:14;;;;;;;1.50;1.40;;;;;;;;;;5044297;28;20327;-67
2021/12/03 21:18:33;;;;;;;1.50;1.40;;;;;;;;;;5038619;28;20933;-67
2021/12/03 21:23:45;;;;;;;1.17;1.13;;;;;;;;;;5028109;28;21948;-68
2021/12/03 21:26:16;;;;;;;1.40;1.30;;;;;;;;;;5039599;28;20220;-67
2021/12/03 21:28:54;;;;;;;1.50;1.30;;;;;;;;;;5043795;28;20223;-68
2021/12/03 21:31:34;;;;;;;1.40;1.30;;;;;;;;;;5041697;28;20223;-69
2021/12/03 21:42:28;;;;;;;1.47;1.37;;;;;;;;;;5006322;28;20258;-69
2021/12/03 21:44:54;;;;;;;1.20;1.20;;;;;;;;;;5044647;28;20230;-67
2021/12/03 21:47:20;;;;;;;1.53;1.43;;;;;;;;;;5040786;28;20460;-68
2021/12/03 21:49:46;;;;;;;1.40;1.30;;;;;;;;;;5040876;28;20382;-67
2021/12/03 21:52:12;;;;;;;1.17;1.17;;;;;;;;;;5033257;28;20245;-69
2021/12/03 21:54:38;;;;;;;1.83;1.37;;;;;;;;;;5041011;28;20240;-67
2021/12/03 21:57:05;;;;;;;1.47;1.37;;;;;;;;;;5046449;28;20713;-68
2021/12/03 21:59:32;;;;;;;1.87;1.40;;;;;;;;;;5048046;28;20250;-68
2021/12/03 22:01:58;;;;;;;1.50;1.40;;;;;;;;;;5043092;28;20704;-67
2021/12/03 22:04:24;;;;;;;1.50;1.40;;;;;;;;;;5044715;28;20289;-68
2021/12/03 22:06:50;;;;;;;1.50;1.40;;;;;;;;;;5027105;28;20235;-68
2021/12/03 22:09:19;;;;;;;1.13;1.13;;;;;;;;;;5041496;28;20231;-68
2021/12/03 22:11:45;;;;;;;1.80;1.43;;;;;;;;;;5046947;28;20215;-68
2021/12/03 22:14:11;;;;;;;1.63;1.20;;;;;;;;;;5046890;28;20238;-69
2021/12/03 22:16:37;;;;;;;1.40;1.30;;;;;;;;;;5045214;28;20747;-67